Pagina principale
METAR-TAF:

METAR-TAF

Aeroporti :

Aeroporto di Catania-Fontanarossa

Catania, Italia

latitudine: 37-28N, longitudine: 015-03E, altezza: 11 m

Osservazione

Il bollettino è stato emesso 15 minuti fa, alle 12:20 UTC
Vento 16 kt da nord, variando fra nord/nord-ovest e est/nord-est
Temperature 18°C
Umidità 94%
Pressione 1013 hPa
Visibilità: 1500 m
Nubi sparse ad un'altezza di 500 ft
Nuvoloso ad un'altezza di 1000 ft
pioggia

METAR: LICC 261220Z 01016KT 340V060 1500 R08/1400U RA SCT005 BKN010 18/17 Q1013

Ora: 14:35 (12:35 UTC)

Previsione

Il bollettino è stato emesso 1 ora e 35 minuti fa, alle 11:00 UTC
Previsione valida dal 26 alle 12 UTC al 27 alle 12 UTC
Vento 14 kt da nord-est
Visibilità 10 km o più
Nubi sparse ad un'altezza di 3000 ft
Temporaneamente
dal 26 alle 12 UTC al 26 alle 24 UTC
Visibilità: 4000 m
temporale, pioggia

TAF: LICC 261100Z 2612/2712 05014KT 9999 SCT030 TEMPO 2612/2624 4000 TSRA

Osservazioni e previsioni meteorologiche di più di 4000 aeroporti (messaggi METAR e TAF).

Le stazioni disponibili sono rappresentate dai dischi gialli e rossi sulla carta.

Puntare il mouse per vedere il nome della stazione.

Clicca sopra per visualizzare le osservazioni e previsioni meteorologiche.

Per cambiare la mappa : fare clic sui pulsanti verdi con una croce nera per ingrandire, il pulsante verde con un trattino per diminuire, o sulla freccia verde per le mappe adiacenti.


METAR-TAF: